Flight Track Log - Related Links

Times and Time Zones

All times are in EDT time to prevent confusion due to time zone crossing. See the UPS1337 flight status page for this flight to view local times or setup timezone preferences in your user account.

Time Position Orientation Groundspeed Altitude Reporting Facility
EDT Latitude Longitude Course Direction KTS MPH feet Rate Location/Type
Mon 09:44:13 PM 27.9000 -82.6833 249° West 157 181 500  Level Tampa TRACON
Mon 09:45:13 PM 27.8833 -82.7333 249° West 221 254 3,100 3,016 Climbing Tampa TRACON
Mon 09:47:16 PM 27.9958 -82.8272 324° Northwest 287 330 9,700 2,967 Climbing Miami Center
Mon 09:48:17 PM 28.0872 -82.8481 349° North 365 420 12,200 2,673 Climbing Miami Center
Mon 09:49:06 PM 28.1728 -82.8431 North 336 387 14,600 1,821 Climbing Jacksonville Center
Mon 09:57:01 PM 29.2874 -82.7041 North 539 620 28,100 1,455 Climbing FlightAware ADS-B
Mon 10:01:45 PM 29.9632 -82.6210 North 510 587 33,000 919 Climbing FlightAware ADS-B
Mon 10:02:21 PM 30.0464 -82.6106 North 509 586 33,000  Level FlightAware ADS-B
Mon 10:03:13 PM 30.1669 -82.5958 North 511 588 33,000  Level FlightAware ADS-B
Mon 10:03:44 PM 30.2427 -82.5864 North 512 589 33,000  Level FlightAware ADS-B
Mon 10:05:06 PM 30.4144 -82.5675 North 501 577 33,000  Level Jacksonville Center
Mon 10:06:06 PM 30.5542 -82.5500 North 506 582 33,000 -50 Level Jacksonville Center
Mon 10:07:06 PM 30.6961 -82.5472 North 506 582 32,900  Descending Jacksonville Center
Mon 10:08:06 PM 30.8381 -82.5417 North 506 582 33,000 50 Climbing Jacksonville Center
Mon 10:09:06 PM 30.9822 -82.5364 North 506 582 33,000  Level Jacksonville Center
Mon 10:10:06 PM 31.1219 -82.5311 North 506 582 33,000  Level Jacksonville Center
Mon 10:11:06 PM 31.2683 -82.5281 North 506 582 33,000  Level Jacksonville Center
Mon 10:12:06 PM 31.4311 -82.5128 North 522 601 33,000  Level Jacksonville Center
Mon 10:13:06 PM 31.5689 -82.5244 356° North 515 593 33,000  Level Jacksonville Center
Mon 10:15:10 PM 31.8258 -82.6017 346° North 479 551 33,000  Level Atlanta Center
Mon 10:16:10 PM 31.9536 -82.6411 345° North 479 551 33,000  Level Atlanta Center
Mon 10:17:10 PM 32.0836 -82.6808 345° North 479 551 33,000  Level Atlanta Center
Mon 10:18:10 PM 32.2111 -82.7206 345° North 479 551 33,000 500 Level Atlanta Center
Mon 10:19:10 PM 32.3389 -82.7631 344° North 479 551 34,000 500 Climbing Atlanta Center
Mon 10:20:10 PM 32.4689 -82.8006 346° North 479 551 34,000  Level Atlanta Center
Mon 10:21:10 PM 32.5944 -82.8406 345° North 474 545 34,000  Level Atlanta Center
Mon 10:22:10 PM 32.7303 -82.8683 350° North 474 545 34,000  Level Atlanta Center
Mon 10:23:10 PM 32.8664 -82.8964 350° North 486 559 34,000  Level Atlanta Center
Mon 10:24:10 PM 33.0003 -82.9267 349° North 492 566 34,000  Level Atlanta Center
Mon 10:25:10 PM 33.1467 -82.9619 349° North 486 559 34,000  Level Atlanta Center
Mon 10:26:10 PM 33.2825 -82.9903 350° North 486 559 34,000  Level Atlanta Center
Mon 10:27:10 PM 33.4183 -83.0183 350° North 491 565 34,000  Level Atlanta Center
Mon 10:28:10 PM 33.5378 -83.0444 350° North 486 559 34,000  Level Atlanta Center
Mon 10:29:10 PM 33.6778 -83.0728 350° North 491 565 34,000  Level Atlanta Center
Mon 10:34:09 PM 34.4233 -83.2372 350° North 487 560 34,000  Level FlightAware ADS-B (KDZJ)
Mon 10:34:40 PM 34.4911 -83.2522 350° North 487 560 34,000  Level FlightAware ADS-B (KDZJ)
Mon 10:35:15 PM 34.5685 -83.2697 349° North 475 547 34,000  Level FlightAware ADS-B (KDZJ)
Mon 10:35:58 PM 34.6641 -83.2923 346° North 479 551 34,000  Level FlightAware ADS-B (KDZJ)
Mon 10:36:32 PM 34.7345 -83.3182 340° North 463 533 34,000  Level FlightAware ADS-B (KDZJ)
Mon 10:37:22 PM 34.8352 -83.3666 339° North 464 534 34,000  Level FlightAware ADS-B (KDZJ)
Mon 10:37:53 PM 34.8968 -83.3962 338° Northwest 452 520 34,000  Level FlightAware ADS-B (KDZJ)
Mon 10:38:35 PM 34.9797 -83.4365 338° Northwest 451 519 34,000  Level FlightAware ADS-B (KDZJ)
Mon 10:39:18 PM 35.0637 -83.4778 338° Northwest 457 526 34,000  Level FlightAware ADS-B (KDZJ)
Mon 10:39:55 PM 35.1382 -83.5143 338° Northwest 456 525 34,000  Level FlightAware ADS-B (KDZJ)
Mon 10:40:39 PM 35.2252 -83.5571 338° Northwest 455 524 34,000  Level FlightAware ADS-B (KDZJ)
Mon 10:41:19 PM 35.3045 -83.5963 338° Northwest 452 520 34,000  Level FlightAware ADS-B (KDZJ)
Mon 10:42:00 PM 35.3844 -83.6359 338° Northwest 452 520 34,000  Level FlightAware ADS-B (KDZJ)
Mon 10:42:45 PM 35.4721 -83.6793 338° Northwest 450 518 34,000  Level FlightAware ADS-B (KDZJ)
Mon 10:44:10 PM 35.5636 -83.7272 338° Northwest 454 522 34,000  Level Atlanta Center
Mon 10:45:10 PM 35.6783 -83.7831 338° Northwest 454 522 34,000 -650 Level Atlanta Center
Mon 10:46:10 PM 35.7933 -83.8417 338° Northwest 454 522 32,700 -1,000 Descending Atlanta Center
Mon 10:47:10 PM 35.9081 -83.9003 338° Northwest 449 517 32,000 -350 Descending Atlanta Center
Mon 10:48:10 PM 36.0125 -83.9617 335° Northwest 435 501 32,000 -678 Level Atlanta Center
Mon 10:50:07 PM 36.2286 -84.0883 335° Northwest 416 479 30,000 -674 Descending Indianapolis Center
Mon 10:51:08 PM 36.3272 -84.1475 334° Northwest 408 470 30,000  Level Indianapolis Center
Mon 10:52:09 PM 36.4272 -84.2072 334° Northwest 403 464 30,000  Level Indianapolis Center
Mon 10:53:10 PM 36.5325 -84.2711 334° Northwest 400 460 30,000 -1,328 Level Indianapolis Center
Mon 10:54:11 PM 36.6303 -84.3292 335° Northwest 401 461 27,300 -2,705 Descending Indianapolis Center
Mon 10:55:12 PM 36.7331 -84.3908 334° Northwest 406 467 24,500 -2,115 Descending Indianapolis Center
Mon 10:56:13 PM 36.8322 -84.4511 334° Northwest 397 457 23,000 -738 Descending Indianapolis Center
Mon 10:57:14 PM 36.9497 -84.5219 334° Northwest 408 470 23,000 -1,082 Level Indianapolis Center
Mon 10:58:15 PM 37.0419 -84.5778 334° Northwest 409 471 20,800 -2,829 Descending Indianapolis Center
Mon 10:59:17 PM 37.1569 -84.6475 334° Northwest 404 465 17,200 -2,780 Descending Indianapolis Center
Mon 11:00:18 PM 37.2558 -84.7083 334° Northwest 394 453 15,100 -1,410 Descending Indianapolis Center
Mon 11:05:40 PM 37.7006 -85.0161 295° West 275 316 8,200 -1,239 Descending FlightAware ADS-B
Mon 11:06:55 PM 37.7446 -85.1240 297° West 270 311 6,900 -913 Descending FlightAware ADS-B
Mon 11:07:58 PM 37.7802 -85.2135 297° West 275 316 6,100 -1,366 Descending FlightAware ADS-B
Mon 11:08:36 PM 37.8020 -85.2678 298° West 273 314 4,600 -1,000 Descending FlightAware ADS-B
Mon 11:09:58 PM 37.8483 -85.3826 296° West 269 310 4,100 -210 Descending FlightAware ADS-B
Mon 11:10:59 PM 37.8814 -85.4656 297° West 257 296 4,100  Level FlightAware ADS-B
Mon 11:11:59 PM 37.9119 -85.5435 296° West 248 285 4,100  Level FlightAware ADS-B
Mon 11:12:58 PM 37.9428 -85.6103 316° Northwest 219 252 4,100  Level FlightAware ADS-B
Mon 11:13:28 PM 37.9670 -85.6398 316° Northwest 199 229 4,100 -200 Level FlightAware ADS-B (KIXA)
Mon 11:13:58 PM 37.9864 -85.6635 315° West 194 223 3,900 -686 Descending FlightAware ADS-B
Mon 11:15:13 PM 38.0388 -85.6997 346° North 174 200 2,900 -805 Descending FlightAware ADS-B
Mon 11:16:27 PM 38.0908 -85.7172 346° North 141 162 1,900 -791 Descending FlightAware ADS-B
Mon 11:17:22 PM 38.1171 -85.7257 346° North 140 161 1,200 -764 Descending FlightAware ADS-B
Mon 11:25:00 PM 38.1667 -85.7333 208° Southwest  Level FlightAware Approximate

Login

Don't have an account? Register now (free) for customized features, flight alerts, and more!